Time;durP1;ratioP1;P1;durP2;ratioP2;P2;SDS_P1;SDS_P2;PMS_P1;PMS_P2;Temp;Humidity;BMP_temperature;BMP_pressure;BME280_temperature;BME280_humidity;BME280_pressure;Samples;Min_cycle;Max_cycle;Signal;HPM_P1;HPM_P2
2022/10/01 00:02:01;;;;;;;6.53;5.93;;;10.20;99.90;;;;;;5113119;28;20466;-54
2022/10/01 00:04:28;;;;;;;6.70;6.00;;;10.30;99.90;;;;;;5113242;28;20446;-54
2022/10/01 00:06:59;;;;;;;10.97;5.93;;;10.30;99.90;;;;;;5112405;28;20485;-54
2022/10/01 00:09:26;;;;;;;6.00;5.43;;;10.30;99.90;;;;;;5113423;28;20431;-54
2022/10/01 00:11:53;;;;;;;5.97;5.47;;;10.40;99.90;;;;;;5113228;28;20466;-54
2022/10/01 00:14:20;;;;;;;5.73;5.23;;;10.50;99.90;;;;;;5112313;28;20556;-54
2022/10/01 00:16:47;;;;;;;6.00;5.40;;;10.60;99.90;;;;;;5112935;28;20447;-54
2022/10/01 00:19:14;;;;;;;5.83;5.33;;;10.60;99.90;;;;;;5113453;28;20443;-54
2022/10/01 00:21:42;;;;;;;6.30;5.40;;;10.60;99.90;;;;;;5112113;28;20472;-54
2022/10/01 00:24:13;;;;;;;7.27;6.57;;;10.60;99.90;;;;;;5112454;28;20442;-54
2022/10/01 00:26:44;;;;;;;4.80;4.40;;;10.70;99.90;;;;;;5113368;28;20427;-54
2022/10/01 00:29:13;;;;;;;6.00;5.40;;;10.70;99.90;;;;;;5112110;28;20433;-54
2022/10/01 00:31:41;;;;;;;6.90;5.43;;;10.70;99.90;;;;;;5113179;28;20477;-54
2022/10/01 00:34:08;;;;;;;7.40;5.63;;;10.60;99.90;;;;;;5113107;28;20568;-54
2022/10/01 00:36:35;;;;;;;5.93;5.27;;;10.60;99.90;;;;;;5111536;28;20457;-54
2022/10/01 00:39:02;;;;;;;5.87;5.37;;;10.60;99.90;;;;;;5112841;28;20958;-54
2022/10/01 00:41:33;;;;;;;6.40;5.80;;;10.60;99.90;;;;;;5112994;28;20557;-54
2022/10/01 00:44:02;;;;;;;6.43;5.77;;;10.60;99.90;;;;;;5115081;28;20762;-54
2022/10/01 00:46:35;;;;;;;6.73;6.03;;;10.60;99.90;;;;;;5116998;28;21003;-54
2022/10/01 00:49:07;;;;;;;6.90;6.30;;;10.60;99.90;;;;;;5117336;28;20760;-54
2022/10/01 00:51:38;;;;;;;5.40;5.00;;;10.50;99.90;;;;;;5115279;28;20968;-54
2022/10/01 00:54:10;;;;;;;6.80;6.20;;;10.60;99.90;;;;;;5116891;28;20969;-54
2022/10/01 00:56:40;;;;;;;6.67;6.00;;;10.50;99.90;;;;;;5116741;28;20430;-54
2022/10/01 00:59:08;;;;;;;7.27;6.53;;;10.60;99.90;;;;;;5115284;28;20458;-54
2022/10/01 01:01:37;;;;;;;6.30;5.70;;;10.60;99.90;;;;;;5117233;28;20474;-54
2022/10/01 01:04:15;;;;;;;7.37;5.10;;;10.50;99.90;;;;;;5116773;28;20435;-54
2022/10/01 01:06:43;;;;;;;6.17;5.67;;;10.60;99.90;;;;;;5115674;28;20429;-54
2022/10/01 01:09:10;;;;;;;5.90;5.40;;;10.60;99.90;;;;;;5115989;28;20455;-54
2022/10/01 01:11:48;;;;;;;5.73;5.20;;;10.50;99.90;;;;;;5116149;28;20466;-54
2022/10/01 01:14:21;;;;;;;6.37;4.87;;;10.50;99.90;;;;;;5115526;28;20466;-54
2022/10/01 01:16:52;;;;;;;5.10;4.70;;;10.50;99.90;;;;;;5116503;28;20522;-54
2022/10/01 01:19:38;;;;;;;5.13;4.70;;;10.50;99.90;;;;;;5116225;28;20431;-54
2022/10/01 01:22:07;;;;;;;5.47;4.97;;;10.50;99.90;;;;;;5115185;28;20561;-54
2022/10/01 01:24:50;;;;;;;6.57;5.80;;;10.50;99.90;;;;;;5115952;28;20921;-54
2022/10/01 01:27:33;;;;;;;5.00;4.53;;;10.60;99.90;;;;;;5116170;28;20448;-54
2022/10/01 01:30:04;;;;;;;5.30;4.90;;;10.50;99.90;;;;;;5115402;28;20458;-54
2022/10/01 01:32:40;;;;;;;7.37;5.43;;;10.50;99.90;;;;;;5116012;28;20462;-54
2022/10/01 01:35:11;;;;;;;5.97;5.47;;;10.60;99.90;;;;;;5116569;28;20473;-54
2022/10/01 01:37:42;;;;;;;5.37;4.87;;;10.50;99.90;;;;;;5115536;28;20727;-55
2022/10/01 01:40:12;;;;;;;5.60;5.10;;;10.50;99.90;;;;;;5116420;28;20427;-54
2022/10/01 01:42:41;;;;;;;5.47;5.07;;;10.50;99.90;;;;;;5116588;28;20458;-54
2022/10/01 01:45:14;;;;;;;6.10;4.43;;;10.50;99.90;;;;;;5115304;28;20461;-54
2022/10/01 01:47:43;;;;;;;5.40;5.00;;;10.50;99.90;;;;;;5116199;28;20466;-54
2022/10/01 01:50:14;;;;;;;4.67;4.27;;;10.50;99.90;;;;;;5115541;28;21075;-54
2022/10/01 01:52:41;;;;;;;4.70;4.30;;;10.50;99.90;;;;;;5114736;28;20984;-54
2022/10/01 01:55:09;;;;;;;6.50;4.83;;;10.50;99.90;;;;;;5115438;28;20475;-54
2022/10/01 01:57:40;;;;;;;5.73;4.90;;;10.50;99.90;;;;;;5115645;28;20469;-54
2022/10/01 02:00:11;;;;;;;5.10;4.60;;;10.50;99.90;;;;;;5115151;28;20454;-54
2022/10/01 02:02:40;;;;;;;4.07;3.77;;;10.50;99.90;;;;;;5115739;28;20957;-54
2022/10/01 02:05:11;;;;;;;4.73;4.20;;;10.60;99.90;;;;;;5115129;28;20815;-54
2022/10/01 02:08:11;;;;;;;4.87;4.47;;;10.60;99.90;;;;;;5115269;28;20431;-54
2022/10/01 02:10:52;;;;;;;4.30;3.90;;;10.60;99.90;;;;;;5115418;28;20456;-54
2022/10/01 02:13:31;;;;;;;5.63;4.23;;;10.60;99.90;;;;;;5113921;28;20473;-54
2022/10/01 02:16:08;;;;;;;4.50;4.10;;;10.70;99.90;;;;;;5115440;28;20433;-55
2022/10/01 02:18:43;;;;;;;4.23;3.93;;;10.70;99.90;;;;;;5115337;28;20542;-54
2022/10/01 02:21:18;;;;;;;4.57;4.03;;;10.70;99.90;;;;;;5114149;28;20432;-55
2022/10/01 02:23:52;;;;;;;5.53;5.00;;;10.70;99.90;;;;;;5115068;28;20939;-54
2022/10/01 02:26:22;;;;;;;4.67;4.27;;;10.70;99.90;;;;;;5115150;28;20427;-54
2022/10/01 02:28:53;;;;;;;6.80;4.30;;;10.80;99.90;;;;;;5114199;28;20536;-55
2022/10/01 02:31:23;;;;;;;4.60;4.03;;;10.80;99.90;;;;;;5115633;28;20864;-54
2022/10/01 02:33:53;;;;;;;4.40;4.10;;;10.90;99.90;;;;;;5115315;28;20470;-54
2022/10/01 02:36:22;;;;;;;5.00;4.20;;;10.70;99.90;;;;;;5113732;28;20453;-54
2022/10/01 02:38:50;;;;;;;6.50;4.00;;;10.70;99.90;;;;;;5114970;28;20933;-54
2022/10/01 02:41:24;;;;;;;4.53;4.13;;;10.80;99.90;;;;;;5114545;28;20449;-54
2022/10/01 02:43:56;;;;;;;4.43;4.13;;;10.80;99.90;;;;;;5114498;28;20427;-54
2022/10/01 02:46:30;;;;;;;4.17;3.53;;;10.80;99.90;;;;;;5115194;28;20517;-53
2022/10/01 02:48:58;;;;;;;4.40;4.10;;;10.80;99.90;;;;;;5114764;28;20784;-54
2022/10/01 02:51:38;;;;;;;4.00;3.60;;;10.80;99.90;;;;;;5113262;27;20478;-54
2022/10/01 02:54:11;;;;;;;5.47;4.00;;;10.90;99.90;;;;;;5114352;28;20496;-54
2022/10/01 02:59:24;;;;;;;3.53;3.17;;;10.80;99.90;;;;;;5114252;28;20448;-54
2022/10/01 03:01:53;;;;;;;4.10;3.70;;;10.80;99.90;;;;;;5114246;28;20550;-54
2022/10/01 03:04:20;;;;;;;4.00;3.70;;;10.90;99.90;;;;;;5113350;28;20447;-54
2022/10/01 03:06:47;;;;;;;3.83;3.53;;;10.90;99.90;;;;;;5114154;28;20449;-54
2022/10/01 03:09:14;;;;;;;3.50;3.20;;;10.90;99.90;;;;;;5114117;28;20884;-54
2022/10/01 03:11:42;;;;;;;4.60;3.90;;;10.90;99.90;;;;;;5113529;28;20463;-54
2022/10/01 03:14:10;;;;;;;5.40;4.90;;;10.80;99.90;;;;;;5114295;28;20486;-54
2022/10/01 03:16:37;;;;;;;5.80;3.83;;;10.90;99.90;;;;;;5113726;28;20503;-54
2022/10/01 03:19:06;;;;;;;3.97;3.67;;;10.80;99.90;;;;;;5114108;28;20499;-54
2022/10/01 03:21:33;;;;;;;4.37;3.93;;;10.70;99.90;;;;;;5114177;28;20470;-54
2022/10/01 03:24:00;;;;;;;4.37;3.57;;;10.80;99.90;;;;;;5113699;28;20490;-54
2022/10/01 03:26:27;;;;;;;4.00;3.63;;;10.80;99.90;;;;;;5113681;28;20539;-54
2022/10/01 03:28:55;;;;;;;4.37;3.97;;;10.80;99.90;;;;;;5113583;28;20447;-54
2022/10/01 03:31:22;;;;;;;4.03;3.73;;;10.80;99.90;;;;;;5113848;28;20481;-54
2022/10/01 03:33:49;;;;;;;4.17;3.87;;;10.80;99.90;;;;;;5113847;28;20453;-54
2022/10/01 03:36:17;;;;;;;5.63;3.63;;;10.80;99.90;;;;;;5113001;28;20533;-54
2022/10/01 03:38:45;;;;;;;4.33;3.93;;;10.80;99.90;;;;;;5113494;28;20446;-54
2022/10/01 03:41:12;;;;;;;4.33;3.30;;;10.80;99.90;;;;;;5113273;28;20451;-54
2022/10/01 03:43:39;;;;;;;3.80;3.50;;;10.70;99.90;;;;;;5112506;28;20453;-54
2022/10/01 03:46:06;;;;;;;3.90;3.60;;;10.70;99.90;;;;;;5113749;28;20442;-54
2022/10/01 03:48:34;;;;;;;4.47;4.17;;;10.80;99.90;;;;;;5112048;28;20528;-54
2022/10/01 03:51:01;;;;;;;3.73;3.43;;;10.70;99.90;;;;;;5111710;28;20516;-54
2022/10/01 03:53:30;;;;;;;4.33;4.00;;;10.70;99.90;;;;;;5113084;28;20486;-54
2022/10/01 03:55:58;;;;;;;4.43;3.67;;;10.80;99.90;;;;;;5113562;28;20478;-54
2022/10/01 03:58:25;;;;;;;4.27;3.20;;;10.80;99.90;;;;;;5111798;28;20454;-54
2022/10/01 04:00:53;;;;;;;3.70;3.30;;;10.70;99.90;;;;;;5113772;28;20461;-54
2022/10/01 04:03:21;;;;;;;4.23;3.67;;;10.70;99.90;;;;;;5113193;28;21000;-54
2022/10/01 04:05:49;;;;;;;3.67;3.37;;;10.60;99.90;;;;;;5112253;28;20531;-54
2022/10/01 04:08:16;;;;;;;3.63;3.30;;;10.60;99.90;;;;;;5113623;28;20451;-54
2022/10/01 04:10:45;;;;;;;3.03;2.83;;;10.60;99.90;;;;;;5113304;28;20458;-55
2022/10/01 04:13:12;;;;;;;3.70;3.40;;;10.60;99.90;;;;;;5112423;28;20476;-54
2022/10/01 04:15:39;;;;;;;3.50;3.00;;;10.60;99.90;;;;;;5113433;28;20484;-54
2022/10/01 04:18:06;;;;;;;3.07;2.80;;;10.70;99.90;;;;;;5112830;28;20478;-54
2022/10/01 04:20:34;;;;;;;3.23;3.03;;;10.70;99.90;;;;;;5112166;28;20534;-54
2022/10/01 04:23:01;;;;;;;3.90;3.20;;;10.70;99.90;;;;;;5112662;28;20470;-54
2022/10/01 04:25:29;;;;;;;3.50;3.20;;;10.80;99.90;;;;;;5112908;28;20446;-54
2022/10/01 04:28:00;;;;;;;4.00;3.10;;;10.80;99.90;;;;;;5112191;28;20481;-54
2022/10/01 04:30:29;;;;;;;3.30;2.90;;;10.80;99.90;;;;;;5113003;28;20454;-54
2022/10/01 04:32:57;;;;;;;3.40;3.10;;;10.80;99.90;;;;;;5113016;28;20465;-55
2022/10/01 04:35:24;;;;;;;3.50;3.20;;;10.80;99.90;;;;;;5112266;28;20542;-54
2022/10/01 04:37:57;;;;;;;4.30;3.10;;;10.80;99.90;;;;;;5113008;28;20443;-54
2022/10/01 04:40:24;;;;;;;3.93;3.60;;;10.80;99.90;;;;;;5112508;28;20484;-54
2022/10/01 04:42:51;;;;;;;3.00;2.80;;;10.70;99.90;;;;;;5111937;28;20558;-54
2022/10/01 04:45:20;;;;;;;3.43;3.17;;;10.80;99.90;;;;;;5112899;28;20435;-54
2022/10/01 04:47:48;;;;;;;3.00;2.80;;;10.70;99.90;;;;;;5112904;28;20442;-54
2022/10/01 04:50:15;;;;;;;3.33;3.03;;;10.80;99.90;;;;;;5111725;28;20474;-54
2022/10/01 04:52:43;;;;;;;3.50;3.20;;;10.80;99.90;;;;;;5112700;28;20462;-54
2022/10/01 04:55:11;;;;;;;3.63;2.67;;;10.80;99.90;;;;;;5112492;28;20466;-54
2022/10/01 04:57:38;;;;;;;4.20;3.90;;;10.80;99.90;;;;;;5111771;28;20465;-54
2022/10/01 05:00:09;;;;;;;2.90;2.70;;;10.80;99.90;;;;;;5112433;28;20784;-54
2022/10/01 05:02:37;;;;;;;4.20;2.90;;;10.80;99.90;;;;;;5112716;28;20466;-54
2022/10/01 05:05:06;;;;;;;3.27;2.97;;;10.80;99.90;;;;;;5112332;28;20546;-54
2022/10/01 05:07:35;;;;;;;3.40;3.10;;;10.80;99.90;;;;;;5112243;28;20481;-54
2022/10/01 05:10:02;;;;;;;3.53;2.70;;;10.80;99.90;;;;;;5112555;28;20451;-54
2022/10/01 05:12:29;;;;;;;2.87;2.67;;;10.80;99.90;;;;;;5112428;28;20495;-54
2022/10/01 05:14:57;;;;;;;2.53;2.33;;;10.90;99.90;;;;;;5112500;28;20478;-54
2022/10/01 05:17:25;;;;;;;3.67;2.70;;;10.90;99.90;;;;;;5112166;28;20807;-54
2022/10/01 05:19:54;;;;;;;3.37;3.07;;;10.90;99.90;;;;;;5112176;28;20538;-54
2022/10/01 05:22:21;;;;;;;3.17;2.87;;;11.00;99.90;;;;;;5112547;28;20469;-54
2022/10/01 05:24:48;;;;;;;2.73;2.53;;;11.00;99.90;;;;;;5111948;28;20495;-54
2022/10/01 05:27:15;;;;;;;2.40;2.20;;;11.00;99.90;;;;;;5111465;28;20533;-54
2022/10/01 05:29:43;;;;;;;3.40;2.63;;;11.00;99.90;;;;;;5114735;28;20454;-54
2022/10/01 05:32:11;;;;;;;11.13;3.70;;;11.10;99.90;;;;;;5116448;28;20459;-54
2022/10/01 05:34:39;;;;;;;2.70;2.30;;;11.10;99.90;;;;;;5115081;28;20454;-54
2022/10/01 05:37:07;;;;;;;3.03;2.23;;;11.10;99.90;;;;;;5116067;27;20446;-54
2022/10/01 05:39:35;;;;;;;3.00;2.80;;;11.10;99.90;;;;;;5116024;28;20446;-54
2022/10/01 05:42:02;;;;;;;2.30;2.20;;;11.20;99.90;;;;;;5114693;28;20501;-54
2022/10/01 05:44:36;;;;;;;5.03;2.37;;;11.20;99.90;;;;;;5116458;28;20439;-54
2022/10/01 05:47:04;;;;;;;2.53;2.33;;;11.20;99.90;;;;;;5115563;28;20923;-54
2022/10/01 05:49:32;;;;;;;2.70;2.50;;;11.10;99.90;;;;;;5115398;28;20451;-54
2022/10/01 05:51:59;;;;;;;2.43;2.23;;;11.10;99.90;;;;;;5115948;28;20458;-54
2022/10/01 05:54:29;;;;;;;2.63;2.43;;;11.10;99.90;;;;;;5115296;28;20537;-54
2022/10/01 05:56:57;;;;;;;2.47;2.23;;;11.20;99.90;;;;;;5115162;28;20438;-54
2022/10/01 05:59:24;;;;;;;2.30;2.10;;;11.20;99.90;;;;;;5116002;28;20438;-54
2022/10/01 06:01:51;;;;;;;3.40;2.10;;;11.30;99.90;;;;;;5115304;28;20515;-54
2022/10/01 06:04:18;;;;;;;2.37;2.17;;;11.30;99.90;;;;;;5114930;28;20443;-54
2022/10/01 06:06:45;;;;;;;3.10;2.40;;;11.30;99.90;;;;;;5115944;28;20477;-54
2022/10/01 06:09:13;;;;;;;2.33;2.13;;;11.20;99.90;;;;;;5115636;28;20644;-54
2022/10/01 06:11:42;;;;;;;2.50;2.30;;;11.10;99.90;;;;;;5113712;28;20973;-54
2022/10/01 06:14:10;;;;;;;2.40;2.20;;;11.20;99.90;;;;;;5115596;28;20466;-54
2022/10/01 06:16:37;;;;;;;2.23;2.03;;;11.10;99.90;;;;;;5114913;28;20478;-54
2022/10/01 06:19:04;;;;;;;4.93;2.50;;;11.10;99.90;;;;;;5114647;28;20553;-54
2022/10/01 06:21:31;;;;;;;2.63;2.43;;;11.00;99.90;;;;;;5115356;28;20467;-54
2022/10/01 06:23:59;;;;;;;2.97;2.67;;;11.00;99.90;;;;;;5114832;28;20462;-54
2022/10/01 06:26:27;;;;;;;2.73;2.53;;;11.00;99.90;;;;;;5113435;27;20442;-54
2022/10/01 06:28:55;;;;;;;4.57;2.90;;;11.00;99.90;;;;;;5114993;28;20537;-54
2022/10/01 06:31:24;;;;;;;3.40;3.10;;;11.00;99.90;;;;;;5115363;28;20482;-54
2022/10/01 06:33:51;;;;;;;3.10;2.63;;;11.00;99.90;;;;;;5114232;28;20532;-54
2022/10/01 06:36:18;;;;;;;2.90;2.70;;;11.00;99.90;;;;;;5114823;28;20810;-54
2022/10/01 06:38:50;;;;;;;2.17;2.07;;;11.00;99.90;;;;;;5114971;28;20458;-55
2022/10/01 06:41:18;;;;;;;3.13;2.83;;;12.10;99.90;;;;;;5114378;28;20462;-56
2022/10/01 06:43:45;;;;;;;2.50;2.30;;;13.20;99.90;;;;;;5114763;28;20442;-55
2022/10/01 06:46:14;;;;;;;2.50;2.30;;;13.80;99.90;;;;;;5114627;28;20443;-56
2022/10/01 06:48:41;;;;;;;2.87;2.30;;;14.00;99.90;;;;;;5113931;28;20447;-57
2022/10/01 06:51:08;;;;;;;2.33;2.13;;;14.40;99.90;;;;;;5114405;28;20560;-56
2022/10/01 06:53:37;;;;;;;2.80;2.60;;;14.70;99.90;;;;;;5113362;28;20984;-55
2022/10/01 06:56:06;;;;;;;2.50;2.30;;;15.10;99.90;;;;;;5113884;28;20482;-55
2022/10/01 06:58:33;;;;;;;2.40;2.20;;;15.30;99.90;;;;;;5114272;28;20454;-55
2022/10/01 07:01:02;;;;;;;2.40;2.20;;;15.40;99.90;;;;;;5113821;28;20550;-55
2022/10/01 07:03:31;;;;;;;2.17;2.00;;;14.50;99.90;;;;;;5114237;28;20453;-55
2022/10/01 07:06:02;;;;;;;2.37;1.97;;;14.50;99.90;;;;;;5114170;28;20449;-55
2022/10/01 07:08:31;;;;;;;2.20;2.00;;;14.60;99.90;;;;;;5112720;28;20462;-55
2022/10/01 07:11:02;;;;;;;2.30;2.10;;;15.00;99.90;;;;;;5114174;28;20533;-55
2022/10/01 07:13:29;;;;;;;2.03;1.70;;;15.70;99.90;;;;;;5114363;28;20430;-55
2022/10/01 07:15:56;;;;;;;2.20;2.00;;;15.90;99.90;;;;;;5104986;28;20578;-56
2022/10/01 07:18:24;;;;;;;2.33;2.00;;;15.50;99.90;;;;;;5106462;28;20451;-56
2022/10/01 07:20:52;;;;;;;2.40;2.20;;;15.00;99.90;;;;;;5102199;28;20537;-55
2022/10/01 07:23:20;;;;;;;2.00;1.90;;;14.90;99.90;;;;;;5103328;28;20545;-58
2022/10/01 07:25:47;;;;;;;2.43;2.20;;;15.00;99.90;;;;;;5098343;28;20453;-55
2022/10/01 07:28:18;;;;;;;2.80;2.50;;;14.90;99.90;;;;;;5104281;28;20455;-55
2022/10/01 07:30:47;;;;;;;3.27;2.87;;;14.70;99.90;;;;;;5100820;28;20454;-55
2022/10/01 07:33:17;;;;;;;6.13;2.50;;;14.50;99.90;;;;;;5103706;28;20470;-52
2022/10/01 07:35:46;;;;;;;4.60;2.40;;;14.20;99.90;;;;;;5100762;28;20577;-53
2022/10/01 07:38:15;;;;;;;2.57;2.37;;;13.60;99.90;;;;;;5103817;28;20448;-53
2022/10/01 07:40:42;;;;;;;2.47;1.93;;;13.20;99.90;;;;;;5102399;28;20450;-55
2022/10/01 07:43:10;;;;;;;2.30;2.10;;;14.40;99.90;;;;;;5107828;28;20470;-54
2022/10/01 07:45:37;;;;;;;3.57;2.27;;;14.50;99.90;;;;;;5101476;28;21008;-55
2022/10/01 07:48:06;;;;;;;7.03;1.90;;;14.70;99.90;;;;;;5112621;28;20478;-55
2022/10/01 07:50:34;;;;;;;2.40;2.20;;;13.90;99.90;;;;;;5099282;28;20568;-54
2022/10/01 07:53:01;;;;;;;2.63;2.43;;;14.20;99.90;;;;;;5098458;28;20463;-57
2022/10/01 07:55:31;;;;;;;2.63;2.43;;;13.10;99.90;;;;;;5095337;28;20547;-55
2022/10/01 07:58:00;;;;;;;3.63;2.50;;;12.80;99.90;;;;;;5105673;28;20469;-57
2022/10/01 08:00:28;;;;;;;2.50;2.10;;;12.70;99.90;;;;;;5106641;28;20478;-54
2022/10/01 08:02:56;;;;;;;2.83;2.30;;;13.00;99.90;;;;;;5104202;28;20474;-55
2022/10/01 08:05:48;;;;;;;1.90;1.80;;;12.50;99.90;;;;;;5105195;28;20601;-57
2022/10/01 08:08:20;;;;;;;2.50;2.30;;;12.30;99.90;;;;;;5101765;28;20446;-56
2022/10/01 08:10:49;;;;;;;2.20;2.00;;;12.60;99.90;;;;;;5102567;28;20504;-55
2022/10/01 08:13:25;;;;;;;3.83;2.70;;;12.90;99.90;;;;;;5103229;28;20466;-54
2022/10/01 08:15:56;;;;;;;2.70;2.50;;;12.30;99.90;;;;;;5107662;28;20815;-55
2022/10/01 08:18:25;;;;;;;2.50;2.30;;;12.60;99.90;;;;;;5107853;28;20533;-52
2022/10/01 08:20:53;;;;;;;3.47;2.30;;;13.10;99.90;;;;;;5110038;28;20458;-54
2022/10/01 08:23:21;;;;;;;2.40;2.20;;;12.20;99.90;;;;;;5109801;28;20509;-57
2022/10/01 08:25:50;;;;;;;3.10;2.53;;;12.80;99.90;;;;;;5106475;28;20450;-57
2022/10/01 08:28:17;;;;;;;3.50;2.30;;;13.00;99.90;;;;;;5109180;28;20481;-54
2022/10/01 08:30:47;;;;;;;2.87;2.30;;;13.00;99.90;;;;;;5109465;28;20813;-56
2022/10/01 08:33:15;;;;;;;2.60;2.40;;;12.50;99.90;;;;;;5103756;28;20478;-55
2022/10/01 08:35:43;;;;;;;4.73;2.07;;;12.40;99.90;;;;;;5108159;28;20478;-55
2022/10/01 08:38:11;;;;;;;3.80;2.20;;;13.10;99.90;;;;;;5106203;28;20794;-55
2022/10/01 08:40:45;;;;;;;2.43;2.00;;;13.90;99.90;;;;;;5107528;28;20450;-57
2022/10/01 08:43:29;;;;;;;2.93;2.30;;;14.00;99.90;;;;;;5109832;28;20497;-54
2022/10/01 08:46:03;;;;;;;2.37;2.17;;;14.90;99.90;;;;;;5110598;28;20503;-58
2022/10/01 08:48:43;;;;;;;2.37;2.13;;;15.20;99.90;;;;;;5110187;28;20523;-59
2022/10/01 08:51:15;;;;;;;2.73;2.53;;;15.30;99.90;;;;;;5109487;28;20489;-55
2022/10/01 08:53:46;;;;;;;4.93;2.30;;;15.50;99.90;;;;;;5109105;28;21078;-56
2022/10/01 08:56:22;;;;;;;2.60;2.13;;;16.10;99.90;;;;;;5109248;28;20492;-54
2022/10/01 08:58:58;;;;;;;2.07;1.90;;;16.60;99.90;;;;;;5109662;28;20446;-54
2022/10/01 09:01:25;;;;;;;2.67;1.93;;;15.50;99.90;;;;;;5108085;28;20869;-55
2022/10/01 09:03:53;;;;;;;5.20;2.00;;;16.10;99.90;;;;;;5111146;28;20446;-55
2022/10/01 09:06:24;;;;;;;2.77;1.90;;;15.90;99.90;;;;;;5111996;28;20435;-55
2022/10/01 09:09:07;;;;;;;4.30;2.40;;;16.00;99.90;;;;;;5110948;28;20449;-57
2022/10/01 09:11:48;;;;;;;2.40;2.20;;;14.60;99.90;;;;;;5113851;28;20478;-58
2022/10/01 09:14:32;;;;;;;3.10;1.80;;;15.10;99.90;;;;;;5113313;28;20465;-57
2022/10/01 09:17:06;;;;;;;2.07;1.90;;;16.00;99.90;;;;;;5111741;28;21278;-55
2022/10/01 09:19:58;;;;;;;1.97;1.77;;;16.10;99.90;;;;;;5114821;28;20545;-58
2022/10/01 09:22:36;;;;;;;3.90;2.00;;;16.10;99.90;;;;;;5114628;28;20462;-57
2022/10/01 09:25:12;;;;;;;2.90;1.90;;;16.20;99.90;;;;;;5113153;28;20658;-55
2022/10/01 09:27:40;;;;;;;2.50;1.80;;;16.20;99.90;;;;;;5114071;28;20446;-61
2022/10/01 09:30:14;;;;;;;1.93;1.73;;;15.80;99.90;;;;;;5113035;28;20468;-57
2022/10/01 09:32:46;;;;;;;3.83;1.90;;;15.00;99.90;;;;;;5113293;28;20819;-54
2022/10/01 09:35:27;;;;;;;1.80;1.70;;;14.80;99.90;;;;;;5113922;28;20447;-56
2022/10/01 09:38:01;;;;;;;2.90;2.00;;;14.70;99.90;;;;;;5111439;28;20520;-56
2022/10/01 09:40:35;;;;;;;2.37;1.70;;;15.10;99.90;;;;;;5113133;28;20442;-58
2022/10/01 09:43:03;;;;;;;1.63;1.53;;;15.10;99.90;;;;;;5113510;28;20466;-59
2022/10/01 09:45:33;;;;;;;2.90;2.57;;;15.00;99.90;;;;;;5110464;28;20574;-58
2022/10/01 09:48:06;;;;;;;2.77;1.90;;;14.50;99.90;;;;;;5111170;28;20442;-59
2022/10/01 09:50:40;;;;;;;3.50;2.00;;;14.70;99.90;;;;;;5112443;28;20481;-57
2022/10/01 09:53:16;;;;;;;2.20;2.00;;;14.90;99.90;;;;;;5112443;28;20851;-57
2022/10/01 09:55:47;;;;;;;3.20;2.10;;;14.00;99.90;;;;;;5113372;28;20521;-52
2022/10/01 09:58:18;;;;;;;3.30;1.70;;;14.40;99.90;;;;;;5113144;28;20840;-57
2022/10/01 10:00:50;;;;;;;1.90;1.70;;;14.50;99.90;;;;;;5111860;28;20524;-55
2022/10/01 10:03:23;;;;;;;5.57;2.17;;;14.80;99.90;;;;;;5113885;28;20473;-56
2022/10/01 10:05:50;;;;;;;1.93;1.60;;;15.90;99.90;;;;;;5114846;28;20422;-57
2022/10/01 10:08:33;;;;;;;1.97;1.73;;;15.00;99.90;;;;;;5111488;28;20454;-56
2022/10/01 10:11:05;;;;;;;1.83;1.63;;;14.90;99.90;;;;;;5111483;28;20454;-60
2022/10/01 10:13:33;;;;;;;1.60;1.50;;;14.60;99.90;;;;;;5112427;28;20821;-57
2022/10/01 10:16:09;;;;;;;1.73;1.60;;;15.30;99.90;;;;;;5111723;28;20454;-52
2022/10/01 10:18:39;;;;;;;2.03;1.63;;;16.20;99.90;;;;;;5113474;28;20525;-60
2022/10/01 10:21:13;;;;;;;2.70;1.50;;;15.80;99.90;;;;;;5113565;28;21000;-56
2022/10/01 10:23:48;;;;;;;1.50;1.40;;;16.00;99.90;;;;;;5111886;28;20446;-55
2022/10/01 10:26:20;;;;;;;2.13;1.90;;;15.30;99.90;;;;;;5112525;28;20940;-55
2022/10/01 10:29:30;;;;;;;2.50;1.63;;;15.80;99.90;;;;;;5112903;28;20450;-52
2022/10/01 10:32:25;;;;;;;2.63;2.30;;;15.70;99.90;;;;;;5112634;28;21071;-51
2022/10/01 10:34:55;;;;;;;2.77;1.70;;;14.60;99.90;;;;;;5114212;28;20447;-51
2022/10/01 10:37:27;;;;;;;2.10;1.60;;;15.00;99.90;;;;;;5112097;28;20486;-54
2022/10/01 10:39:54;;;;;;;2.07;1.40;;;14.60;99.90;;;;;;5112994;28;20443;-56
2022/10/01 10:42:23;;;;;;;1.73;1.40;;;14.10;99.90;;;;;;5113252;28;20471;-54
2022/10/01 10:44:57;;;;;;;2.80;1.90;;;13.90;99.90;;;;;;5108452;28;20500;-58
2022/10/01 10:47:27;;;;;;;1.40;1.30;;;13.90;99.90;;;;;;5112629;28;20477;-57
2022/10/01 10:49:58;;;;;;;3.57;2.43;;;14.30;99.90;;;;;;5111095;28;20508;-57
2022/10/01 10:52:29;;;;;;;1.63;1.53;;;14.90;99.90;;;;;;5109465;28;20466;-57
2022/10/01 10:54:58;;;;;;;1.53;1.40;;;14.50;99.90;;;;;;5112195;28;20455;-55
2022/10/01 10:57:27;;;;;;;1.53;1.40;;;13.70;99.90;;;;;;5112432;28;20495;-55
2022/10/01 10:59:56;;;;;;;1.83;1.50;;;14.40;99.90;;;;;;5111468;28;20511;-56
2022/10/01 11:02:32;;;;;;;1.50;1.40;;;14.70;99.90;;;;;;5113077;28;21138;-56
2022/10/01 11:05:03;;;;;;;4.20;1.43;;;15.00;99.90;;;;;;5112651;28;20837;-55
2022/10/01 11:07:30;;;;;;;1.50;1.30;;;14.90;99.90;;;;;;5111142;28;20438;-56
2022/10/01 11:10:20;;;;;;;1.50;1.40;;;15.20;99.90;;;;;;5112838;28;20844;-60
2022/10/01 11:13:00;;;;;;;1.40;1.30;;;14.60;99.90;;;;;;5111305;28;20566;-59
2022/10/01 11:15:44;;;;;;;1.33;1.23;;;14.50;99.90;;;;;;5110615;28;20442;-58
2022/10/01 11:18:36;;;;;;;1.63;1.53;;;14.90;99.90;;;;;;5112260;28;20462;-58
2022/10/01 11:21:22;;;;;;;1.70;1.50;;;15.00;99.90;;;;;;5111033;28;20522;-57
2022/10/01 11:24:05;;;;;;;1.40;1.30;;;14.70;99.90;;;;;;5109567;28;20897;-57
2022/10/01 11:26:41;;;;;;;1.30;1.20;;;15.10;99.90;;;;;;5109407;28;20466;-54
2022/10/01 11:29:24;;;;;;;1.47;1.30;;;15.50;99.90;;;;;;5111166;28;20533;-51
2022/10/01 11:32:02;;;;;;;1.87;1.40;;;15.20;99.90;;;;;;5111177;28;20464;-54
2022/10/01 11:34:49;;;;;;;1.57;1.47;;;14.50;99.90;;;;;;5111231;28;20449;-56
2022/10/01 11:37:34;;;;;;;1.40;1.30;;;14.20;99.90;;;;;;5108933;28;20474;-54
2022/10/01 11:40:12;;;;;;;1.87;1.50;;;14.00;99.90;;;;;;5110954;28;20976;-58
2022/10/01 11:42:42;;;;;;;1.30;1.20;;;14.40;99.90;;;;;;5110596;28;20506;-57
2022/10/01 11:45:18;;;;;;;1.80;1.30;;;14.10;99.90;;;;;;5109409;28;20535;-57
2022/10/01 11:47:50;;;;;;;1.50;1.40;;;14.40;99.90;;;;;;5110209;28;20496;-56
2022/10/01 11:50:24;;;;;;;1.60;1.50;;;14.80;99.90;;;;;;5108835;28;20474;-58
2022/10/01 11:52:58;;;;;;;3.33;1.20;;;15.50;99.90;;;;;;5107795;28;20466;-55
2022/10/01 12:01:11;;;;;;;2.03;1.50;;;15.70;99.90;;;;;;5097525;28;20437;-56
2022/10/01 12:03:50;;;;;;;2.07;1.80;;;14.60;99.90;;;;;;5098731;28;20427;-55
2022/10/01 12:06:23;;;;;;;1.73;1.50;;;15.20;99.90;;;;;;5098339;28;20456;-57
2022/10/01 12:08:57;;;;;;;2.43;1.70;;;15.10;99.90;;;;;;5099520;28;20539;-55
2022/10/01 12:11:30;;;;;;;1.37;1.27;;;15.20;99.90;;;;;;5098978;28;20497;-56
2022/10/01 12:14:03;;;;;;;2.67;1.80;;;15.30;99.90;;;;;;5098199;28;20934;-55
2022/10/01 12:16:41;;;;;;;1.30;1.20;;;15.70;99.90;;;;;;5100721;28;20771;-56
2022/10/01 12:19:16;;;;;;;1.37;1.27;;;16.00;99.90;;;;;;5101207;28;20448;-56
2022/10/01 12:21:49;;;;;;;1.80;1.60;;;15.40;99.90;;;;;;5098529;28;20474;-57
2022/10/01 12:24:20;;;;;;;1.80;1.70;;;15.20;99.90;;;;;;5100271;28;20484;-56
2022/10/01 12:26:57;;;;;;;1.87;1.63;;;15.40;99.90;;;;;;5102709;28;20462;-55
2022/10/01 12:29:35;;;;;;;1.87;1.67;;;15.60;99.90;;;;;;5097036;28;20439;-57
2022/10/01 12:32:12;;;;;;;2.00;1.80;;;15.40;99.90;;;;;;5097867;28;20981;-57
2022/10/01 12:34:49;;;;;;;2.23;1.37;;;15.70;99.90;;;;;;5101930;28;20972;-56
2022/10/01 12:37:25;;;;;;;1.80;1.70;;;15.60;99.90;;;;;;5097299;28;20467;-56
2022/10/01 12:40:07;;;;;;;2.10;1.60;;;15.90;99.90;;;;;;5097725;28;20453;-56
2022/10/01 12:42:50;;;;;;;2.07;1.87;;;15.80;99.90;;;;;;5103274;28;20473;-56
2022/10/01 12:45:26;;;;;;;2.20;1.50;;;15.10;99.90;;;;;;5105078;28;20511;-55
2022/10/01 12:48:02;;;;;;;1.53;1.40;;;14.50;99.90;;;;;;5104614;28;20545;-55
2022/10/01 12:50:39;;;;;;;1.40;1.30;;;14.30;99.90;;;;;;5108698;28;20477;-55
2022/10/01 12:53:19;;;;;;;5.57;1.30;;;14.40;99.90;;;;;;5109250;28;20509;-55
2022/10/01 12:55:58;;;;;;;1.60;1.40;;;15.00;99.90;;;;;;5094761;28;20447;-55
2022/10/01 12:58:42;;;;;;;1.70;1.60;;;15.30;99.90;;;;;;5088373;28;20470;-56
2022/10/01 13:01:17;;;;;;;2.17;1.73;;;15.90;99.90;;;;;;5092170;28;20466;-55
2022/10/01 13:04:04;;;;;;;3.67;1.60;;;15.30;99.90;;;;;;5091553;28;20920;-55
2022/10/01 13:06:45;;;;;;;1.63;1.30;;;15.00;99.90;;;;;;5090724;28;20515;-55
2022/10/01 13:09:21;;;;;;;1.90;1.80;;;15.00;99.90;;;;;;5092384;28;20438;-54
2022/10/01 13:12:02;;;;;;;1.50;1.30;;;15.50;99.90;;;;;;5091023;28;20467;-55
2022/10/01 13:14:31;;;;;;;1.40;1.30;;;15.10;99.90;;;;;;5089353;28;20436;-54
2022/10/01 13:17:08;;;;;;;2.50;1.30;;;14.70;99.90;;;;;;5091300;28;20539;-54
2022/10/01 13:19:43;;;;;;;1.40;1.30;;;14.50;99.90;;;;;;5090472;28;20511;-55